createdAt,value
2023-01-26T00:00:16.819Z,1.63
2023-01-26T00:02:45.730Z,1.35
2023-01-26T00:05:14.239Z,1.42
2023-01-26T00:07:45.412Z,1.52
2023-01-26T00:10:15.111Z,1.42
2023-01-26T00:12:43.672Z,1.49
2023-01-26T00:15:13.770Z,1.43
2023-01-26T00:17:42.287Z,1.46
2023-01-26T00:20:12.697Z,1.60
2023-01-26T00:22:41.651Z,1.58
2023-01-26T00:25:11.053Z,1.61
2023-01-26T00:27:39.714Z,1.70
2023-01-26T00:30:10.294Z,1.87
2023-01-26T00:32:40.717Z,1.97
2023-01-26T00:35:11.625Z,1.95
2023-01-26T00:37:42.630Z,1.81
2023-01-26T00:40:13.026Z,1.96
2023-01-26T00:42:41.840Z,1.70
2023-01-26T00:45:11.434Z,1.65
2023-01-26T00:47:41.402Z,1.58
2023-01-26T00:50:12.451Z,1.76
2023-01-26T00:52:41.197Z,1.85
2023-01-26T00:55:10.417Z,2.02
2023-01-26T00:57:39.285Z,2.17
2023-01-26T01:00:13.701Z,2.10
2023-01-26T01:02:43.817Z,1.57
2023-01-26T01:05:13.131Z,1.56
2023-01-26T01:07:42.171Z,1.66
2023-01-26T01:10:12.682Z,1.93
2023-01-26T01:12:41.392Z,2.00
2023-01-26T01:15:10.863Z,1.60
2023-01-26T01:17:41.395Z,1.65
2023-01-26T01:20:13.634Z,1.61
2023-01-26T01:22:43.668Z,1.69
2023-01-26T01:25:13.043Z,1.84
2023-01-26T01:27:41.778Z,1.90
2023-01-26T01:30:12.644Z,1.92
2023-01-26T01:32:41.406Z,1.67
2023-01-26T01:35:11.581Z,1.79
2023-01-26T01:37:40.065Z,1.82
2023-01-26T01:40:14.134Z,1.81
2023-01-26T01:42:48.985Z,1.64
2023-01-26T01:45:42.959Z,1.50
2023-01-26T01:48:23.966Z,1.71
2023-01-26T01:50:58.627Z,1.85
2023-01-26T01:53:34.688Z,1.74
2023-01-26T01:56:10.611Z,1.88
2023-01-26T01:58:43.879Z,1.89
2023-01-26T02:01:13.452Z,1.90
2023-01-26T02:03:45.977Z,1.73
2023-01-26T02:06:22.092Z,1.66
2023-01-26T02:08:54.856Z,1.52
2023-01-26T02:11:28.352Z,1.62
2023-01-26T02:14:00.028Z,1.74
2023-01-26T02:16:31.300Z,1.83
2023-01-26T02:19:00.893Z,1.92
2023-01-26T02:21:31.341Z,1.95
2023-01-26T02:24:15.356Z,2.02
2023-01-26T02:26:45.551Z,1.78
2023-01-26T02:29:17.636Z,1.54
2023-01-26T02:31:47.205Z,1.70
2023-01-26T02:34:16.070Z,1.88
2023-01-26T02:36:44.665Z,1.99
2023-01-26T02:39:35.918Z,1.80
2023-01-26T02:42:24.530Z,1.91
2023-01-26T02:44:53.452Z,1.99
2023-01-26T02:47:22.016Z,2.02
2023-01-26T02:49:51.055Z,1.89
2023-01-26T02:52:25.825Z,1.91
2023-01-26T02:55:26.371Z,1.89
2023-01-26T02:57:59.040Z,2.05
2023-01-26T03:00:31.174Z,1.75
2023-01-26T03:03:02.738Z,1.85
2023-01-26T03:05:32.661Z,1.72
2023-01-26T03:08:01.623Z,1.96
2023-01-26T03:10:37.641Z,2.03
2023-01-26T03:13:10.416Z,2.11
2023-01-26T03:15:52.569Z,2.01
2023-01-26T03:18:42.324Z,2.04
2023-01-26T03:21:34.288Z,1.98
2023-01-26T03:24:21.487Z,1.97
2023-01-26T03:27:07.997Z,2.06
2023-01-26T03:29:38.875Z,2.10
2023-01-26T03:32:07.501Z,2.10
2023-01-26T03:34:36.163Z,2.05
2023-01-26T03:37:06.824Z,2.04
2023-01-26T03:40:09.398Z,2.07
2023-01-26T03:42:56.387Z,2.04
2023-01-26T03:45:43.910Z,2.01
2023-01-26T03:48:31.645Z,1.95
2023-01-26T03:51:18.901Z,1.96
2023-01-26T03:54:05.916Z,1.85
2023-01-26T03:56:34.722Z,1.88
2023-01-26T03:59:09.868Z,1.93
2023-01-26T04:02:02.952Z,2.03
2023-01-26T04:04:50.553Z,1.82
2023-01-26T04:07:38.866Z,1.76
2023-01-26T04:10:09.411Z,1.88
2023-01-26T04:12:38.496Z,1.94
2023-01-26T04:15:36.634Z,1.67
2023-01-26T04:18:27.102Z,1.66
2023-01-26T04:21:15.316Z,1.69
2023-01-26T04:23:45.780Z,1.88
2023-01-26T04:26:15.031Z,1.83
2023-01-26T04:28:44.216Z,1.81
2023-01-26T04:31:13.423Z,1.65
2023-01-26T04:33:43.747Z,1.56
2023-01-26T04:36:12.845Z,1.64
2023-01-26T04:38:46.382Z,1.58
2023-01-26T04:41:18.762Z,1.62
2023-01-26T04:43:52.523Z,1.59
2023-01-26T04:46:21.109Z,1.58
2023-01-26T04:48:51.217Z,1.70
2023-01-26T04:51:22.676Z,1.76
2023-01-26T04:53:52.333Z,1.89
2023-01-26T04:56:27.892Z,1.95
2023-01-26T04:58:59.750Z,1.89
2023-01-26T05:01:29.530Z,1.96
2023-01-26T05:04:02.680Z,1.82
2023-01-26T05:06:33.281Z,1.79
2023-01-26T05:09:01.995Z,1.81
2023-01-26T05:11:33.342Z,1.79
2023-01-26T05:14:28.229Z,1.81
2023-01-26T05:17:26.070Z,1.62
2023-01-26T05:20:15.221Z,1.82
2023-01-26T05:23:04.225Z,1.88
2023-01-26T05:25:52.198Z,1.97
2023-01-26T05:28:21.905Z,1.89
2023-01-26T05:30:50.673Z,1.98
2023-01-26T05:33:22.044Z,1.83
2023-01-26T05:35:53.384Z,1.93
2023-01-26T05:38:22.531Z,1.94
2023-01-26T05:40:51.343Z,1.83
2023-01-26T05:43:20.234Z,1.86
2023-01-26T05:46:11.131Z,1.88
2023-01-26T05:48:43.581Z,1.85
2023-01-26T05:51:14.490Z,1.85
2023-01-26T05:53:43.385Z,1.87
2023-01-26T05:56:12.177Z,1.88
2023-01-26T05:58:45.867Z,1.86
2023-01-26T06:01:14.778Z,1.82
2023-01-26T06:03:51.721Z,1.85
2023-01-26T06:06:21.906Z,1.82
2023-01-26T06:08:54.983Z,1.89
2023-01-26T06:11:34.173Z,1.94
2023-01-26T06:14:23.403Z,1.92
2023-01-26T06:16:54.443Z,1.85
2023-01-26T06:19:23.321Z,1.89
2023-01-26T06:21:57.978Z,1.82
2023-01-26T06:24:26.724Z,1.86
2023-01-26T06:26:55.660Z,1.74
2023-01-26T06:29:24.390Z,1.89
2023-01-26T06:31:53.195Z,1.90
2023-01-26T06:34:24.941Z,1.80
2023-01-26T06:36:57.639Z,1.78
2023-01-26T06:39:31.230Z,1.33
2023-01-26T06:42:00.931Z,1.33
2023-01-26T06:44:29.573Z,1.38
2023-01-26T06:46:58.208Z,1.48
2023-01-26T06:49:26.872Z,1.47
2023-01-26T06:52:04.105Z,1.64
2023-01-26T06:54:50.824Z,1.68
2023-01-26T06:57:24.881Z,1.57
2023-01-26T07:00:15.001Z,1.77
2023-01-26T07:03:03.979Z,1.76
2023-01-26T07:05:32.861Z,1.87
2023-01-26T07:08:04.389Z,1.80
2023-01-26T07:10:33.376Z,1.78
2023-01-26T07:13:01.943Z,1.93
2023-01-26T07:15:30.554Z,1.79
2023-01-26T07:17:59.902Z,1.76
2023-01-26T07:20:29.170Z,2.02
2023-01-26T07:23:00.227Z,1.96
2023-01-26T07:25:30.302Z,2.04
2023-01-26T07:28:00.013Z,1.99
2023-01-26T07:30:29.028Z,2.01
2023-01-26T07:33:01.371Z,1.98
2023-01-26T07:35:30.691Z,1.92
2023-01-26T07:37:59.352Z,1.98
2023-01-26T07:40:29.338Z,1.99
2023-01-26T07:42:59.783Z,1.94
2023-01-26T07:45:48.341Z,1.93
2023-01-26T07:48:17.218Z,2.00
2023-01-26T07:50:47.349Z,2.03
2023-01-26T07:53:19.334Z,2.06
2023-01-26T07:55:50.077Z,1.96
2023-01-26T07:58:19.059Z,1.86
2023-01-26T08:00:47.973Z,1.97
2023-01-26T08:03:16.775Z,2.06
2023-01-26T08:05:45.625Z,2.07
2023-01-26T08:08:14.343Z,2.04
2023-01-26T08:10:42.926Z,1.86
2023-01-26T08:13:12.849Z,1.77
2023-01-26T08:15:41.380Z,1.93
2023-01-26T08:18:10.054Z,1.90
2023-01-26T08:20:38.668Z,1.74
2023-01-26T08:23:07.186Z,1.76
2023-01-26T08:25:35.707Z,1.55
2023-01-26T08:28:04.552Z,1.69
2023-01-26T08:30:34.579Z,1.77
2023-01-26T08:33:03.160Z,1.84
2023-01-26T08:35:33.849Z,1.62
2023-01-26T08:38:02.496Z,1.43
2023-01-26T08:40:31.092Z,1.52
2023-01-26T08:43:03.339Z,1.63
2023-01-26T08:45:34.473Z,1.53
2023-01-26T08:48:03.185Z,1.69
2023-01-26T08:50:31.880Z,1.75
2023-01-26T08:53:00.511Z,1.59
2023-01-26T08:55:29.717Z,1.78
2023-01-26T08:57:58.323Z,1.81
2023-01-26T09:00:27.236Z,1.81
2023-01-26T09:03:02.431Z,1.69
2023-01-26T09:05:36.223Z,1.91
2023-01-26T09:08:05.924Z,2.04
2023-01-26T09:10:35.168Z,2.04
2023-01-26T09:13:03.760Z,1.89
2023-01-26T09:15:32.262Z,1.93
2023-01-26T09:18:02.310Z,1.75
2023-01-26T09:20:30.916Z,1.89
2023-01-26T09:22:59.484Z,2.05
2023-01-26T09:25:28.071Z,2.29
2023-01-26T09:27:56.681Z,2.38
2023-01-26T09:30:26.225Z,2.37
2023-01-26T09:32:59.165Z,2.48
2023-01-26T09:35:29.940Z,2.46
2023-01-26T09:37:58.758Z,2.50
2023-01-26T09:40:41.736Z,2.47
2023-01-26T09:43:31.165Z,2.60
2023-01-26T09:46:14.037Z,2.37
2023-01-26T09:48:51.660Z,2.61
2023-01-26T09:51:33.650Z,2.54
2023-01-26T09:54:16.048Z,2.57
2023-01-26T09:56:45.423Z,2.65
2023-01-26T09:59:29.205Z,2.78
2023-01-26T10:02:11.299Z,2.66
2023-01-26T10:04:46.874Z,2.60
2023-01-26T10:07:17.363Z,2.63
2023-01-26T10:09:54.338Z,2.70
2023-01-26T10:12:26.975Z,2.65
2023-01-26T10:15:02.337Z,2.79
2023-01-26T10:17:37.655Z,2.58
2023-01-26T10:20:28.232Z,2.75
2023-01-26T10:23:05.723Z,2.73
2023-01-26T10:25:38.017Z,2.78
2023-01-26T10:28:15.294Z,2.97
2023-01-26T10:30:47.140Z,2.95
2023-01-26T10:33:21.114Z,3.03
2023-01-26T10:35:49.827Z,3.10
2023-01-26T10:38:43.655Z,2.91
2023-01-26T10:41:29.990Z,3.03
2023-01-26T10:44:00.983Z,2.99
2023-01-26T10:46:34.816Z,2.86
2023-01-26T10:49:16.379Z,2.90
2023-01-26T10:52:06.919Z,2.85
2023-01-26T10:54:36.994Z,2.91
2023-01-26T10:57:15.362Z,2.76
2023-01-26T10:59:54.043Z,2.75
2023-01-26T11:02:28.306Z,2.83
2023-01-26T11:05:15.613Z,2.75
2023-01-26T11:07:46.379Z,2.79
2023-01-26T11:10:29.282Z,2.68
2023-01-26T11:13:14.824Z,2.45
2023-01-26T11:15:47.904Z,2.46
2023-01-26T11:18:31.454Z,2.48
2023-01-26T11:21:07.378Z,2.40
2023-01-26T11:23:52.829Z,2.62
2023-01-26T11:27:09.744Z,2.53
2023-01-26T11:30:31.622Z,2.55
2023-01-26T11:33:17.874Z,2.80
2023-01-26T11:35:58.457Z,2.86
2023-01-26T11:38:39.353Z,2.70
2023-01-26T11:41:42.710Z,2.86
2023-01-26T11:44:35.385Z,2.95
2023-01-26T11:47:45.391Z,3.03
2023-01-26T11:50:35.039Z,3.22
2023-01-26T11:53:37.254Z,3.26
2023-01-26T11:56:32.293Z,2.98
2023-01-26T11:59:11.954Z,2.82
2023-01-26T12:01:44.977Z,2.82
2023-01-26T12:04:20.866Z,2.71
2023-01-26T12:06:59.382Z,2.67
2023-01-26T12:09:37.107Z,2.87
2023-01-26T12:12:14.342Z,2.59
2023-01-26T12:14:51.606Z,2.62
2023-01-26T12:17:35.130Z,2.45
2023-01-26T12:20:24.694Z,2.46
2023-01-26T12:23:04.852Z,2.37
2023-01-26T12:25:37.731Z,2.38
2023-01-26T12:28:19.730Z,2.52
2023-01-26T12:31:03.147Z,2.68
2023-01-26T12:33:34.201Z,2.63
2023-01-26T12:36:37.145Z,2.55
2023-01-26T12:39:14.618Z,2.50
2023-01-26T12:42:17.142Z,2.71
2023-01-26T12:44:55.559Z,2.56
2023-01-26T12:47:34.749Z,2.71
2023-01-26T12:50:14.038Z,2.79
2023-01-26T12:52:50.585Z,2.54
2023-01-26T12:55:25.270Z,2.42
2023-01-26T12:58:02.151Z,2.37
2023-01-26T13:00:34.472Z,2.28
2023-01-26T13:03:17.975Z,2.21
2023-01-26T13:05:58.784Z,2.27
2023-01-26T13:08:54.351Z,2.15
2023-01-26T13:11:49.591Z,2.03
2023-01-26T13:15:00.690Z,1.92
2023-01-26T13:17:53.350Z,1.82
2023-01-26T13:20:47.096Z,1.91
2023-01-26T13:23:41.255Z,1.99
2023-01-26T13:26:35.006Z,2.01
2023-01-26T13:29:34.266Z,2.25
2023-01-26T13:32:55.073Z,2.44
2023-01-26T13:35:27.726Z,2.49
2023-01-26T13:38:07.818Z,2.65
2023-01-26T13:40:39.184Z,2.76
2023-01-26T13:43:26.800Z,2.81
2023-01-26T13:46:23.517Z,2.53
2023-01-26T13:48:53.288Z,2.61
2023-01-26T13:51:28.114Z,2.64
2023-01-26T13:54:03.824Z,2.58
2023-01-26T13:56:34.942Z,2.46
2023-01-26T13:59:13.621Z,2.34
2023-01-26T14:01:45.529Z,2.21
2023-01-26T14:04:20.109Z,2.22
2023-01-26T14:06:58.664Z,2.14
2023-01-26T14:09:31.315Z,2.09
2023-01-26T14:12:03.126Z,2.13
2023-01-26T14:14:37.378Z,2.20
2023-01-26T14:17:23.761Z,2.40
2023-01-26T14:19:52.640Z,2.23
2023-01-26T14:22:24.494Z,2.18
2023-01-26T14:24:55.088Z,2.18
2023-01-26T14:27:40.516Z,2.15
2023-01-26T14:30:27.817Z,1.88
2023-01-26T14:33:04.991Z,1.53
2023-01-26T14:35:34.471Z,1.69
2023-01-26T14:38:17.836Z,1.59
2023-01-26T14:40:56.041Z,1.48
2023-01-26T14:43:25.465Z,1.35
2023-01-26T14:46:01.233Z,1.41
2023-01-26T14:48:35.909Z,1.73
2023-01-26T14:51:14.448Z,1.98
2023-01-26T14:53:51.594Z,1.80
2023-01-26T14:56:24.296Z,2.02
2023-01-26T14:58:56.163Z,2.20
2023-01-26T15:01:27.907Z,2.33
2023-01-26T15:04:09.328Z,2.12
2023-01-26T15:06:40.546Z,1.98
2023-01-26T15:09:26.439Z,2.12
2023-01-26T15:12:17.968Z,2.24
2023-01-26T15:14:51.732Z,2.12
2023-01-26T15:17:37.217Z,2.04
2023-01-26T15:20:33.246Z,1.98
2023-01-26T15:23:01.866Z,1.97
2023-01-26T15:25:35.068Z,2.07
2023-01-26T15:28:04.665Z,2.21
2023-01-26T15:30:37.756Z,2.34
2023-01-26T15:33:06.321Z,1.86
2023-01-26T15:35:36.118Z,1.78
2023-01-26T15:38:07.263Z,1.77
2023-01-26T15:40:37.975Z,1.65
2023-01-26T15:43:18.146Z,1.49
2023-01-26T15:45:54.182Z,1.56
2023-01-26T15:48:25.437Z,1.49
2023-01-26T15:50:54.608Z,1.59
2023-01-26T15:53:24.532Z,1.59
2023-01-26T15:55:56.168Z,1.41
2023-01-26T15:58:25.531Z,1.40
2023-01-26T16:00:54.446Z,1.52
2023-01-26T16:03:23.884Z,1.46
2023-01-26T16:05:52.747Z,1.64
2023-01-26T16:08:22.166Z,1.45
2023-01-26T16:10:50.983Z,1.43
2023-01-26T16:13:20.997Z,1.56
2023-01-26T16:15:52.457Z,1.40
2023-01-26T16:18:21.805Z,1.39
2023-01-26T16:20:51.348Z,1.54
2023-01-26T16:23:24.002Z,1.34
2023-01-26T16:25:53.851Z,1.30
2023-01-26T16:28:24.396Z,1.49
2023-01-26T16:30:53.073Z,1.33
2023-01-26T16:33:22.307Z,1.41
2023-01-26T16:35:50.927Z,1.33
2023-01-26T16:38:19.768Z,1.45
2023-01-26T16:40:50.463Z,1.39
2023-01-26T16:43:24.979Z,1.48
2023-01-26T16:45:53.835Z,1.68
2023-01-26T16:48:23.752Z,1.69
2023-01-26T16:50:54.915Z,1.63
2023-01-26T16:53:28.657Z,1.46
2023-01-26T16:55:57.893Z,1.30
2023-01-26T16:58:28.475Z,1.47
2023-01-26T17:00:57.890Z,1.37
2023-01-26T17:03:26.603Z,1.48
2023-01-26T17:05:56.948Z,1.35
2023-01-26T17:08:25.661Z,1.27
2023-01-26T17:11:02.205Z,1.20
2023-01-26T17:13:33.447Z,1.17
2023-01-26T17:16:02.093Z,1.09
2023-01-26T17:18:33.466Z,1.31
2023-01-26T17:21:06.440Z,1.22
2023-01-26T17:23:37.388Z,1.28
2023-01-26T17:26:07.937Z,1.26
2023-01-26T17:28:37.950Z,1.31
2023-01-26T17:31:10.884Z,1.40
2023-01-26T17:33:40.679Z,1.27
2023-01-26T17:36:10.223Z,1.24
2023-01-26T17:38:38.845Z,1.55
2023-01-26T17:41:07.952Z,1.69
2023-01-26T17:43:38.131Z,1.75
2023-01-26T17:46:09.772Z,1.59
2023-01-26T17:48:38.835Z,1.51
2023-01-26T17:51:08.999Z,1.38
2023-01-26T17:53:39.277Z,1.37
2023-01-26T17:56:09.614Z,1.26
2023-01-26T17:58:40.525Z,1.28
2023-01-26T18:01:11.472Z,1.51
2023-01-26T18:03:43.602Z,1.67
2023-01-26T18:06:12.958Z,1.83
2023-01-26T18:08:52.049Z,1.84
2023-01-26T18:11:21.086Z,1.74
2023-01-26T18:13:51.902Z,1.66
2023-01-26T18:16:22.967Z,1.47
2023-01-26T18:18:57.283Z,1.34
2023-01-26T18:21:29.130Z,1.42
2023-01-26T18:24:01.461Z,1.47
2023-01-26T18:26:33.005Z,1.24
2023-01-26T18:29:05.233Z,1.13
2023-01-26T18:31:37.152Z,1.07
2023-01-26T18:34:06.276Z,1.16
2023-01-26T18:36:35.445Z,1.24
2023-01-26T18:39:08.012Z,1.29
2023-01-26T18:41:37.991Z,1.25
2023-01-26T18:44:08.554Z,1.31
2023-01-26T18:46:37.606Z,1.43
2023-01-26T18:49:06.565Z,1.36
2023-01-26T18:51:37.230Z,1.27
2023-01-26T18:54:07.396Z,1.27
2023-01-26T18:56:36.347Z,1.13
2023-01-26T18:59:06.493Z,1.30
2023-01-26T19:01:36.718Z,1.47
2023-01-26T19:04:07.183Z,1.49
2023-01-26T19:06:36.389Z,1.43
2023-01-26T19:09:08.591Z,1.28
2023-01-26T19:11:40.066Z,1.30
2023-01-26T19:14:09.751Z,1.14
2023-01-26T19:16:42.181Z,1.19
2023-01-26T19:19:13.111Z,0.92
2023-01-26T19:21:41.796Z,1.21
2023-01-26T19:24:10.820Z,1.37
2023-01-26T19:26:39.634Z,1.37
2023-01-26T19:29:08.294Z,1.29
2023-01-26T19:31:37.849Z,1.32
2023-01-26T19:34:13.543Z,1.26
2023-01-26T19:36:42.396Z,1.38
2023-01-26T19:39:11.816Z,1.28
2023-01-26T19:41:40.576Z,1.37
2023-01-26T19:44:09.433Z,1.31
2023-01-26T19:46:38.201Z,1.30
2023-01-26T19:49:11.709Z,1.38
2023-01-26T19:51:40.279Z,1.49
2023-01-26T19:54:10.194Z,1.52
2023-01-26T19:56:39.313Z,1.41
2023-01-26T19:59:12.758Z,0.98
2023-01-26T20:01:41.519Z,1.11
2023-01-26T20:04:16.026Z,1.16
2023-01-26T20:06:44.627Z,1.23
2023-01-26T20:09:13.222Z,1.27
2023-01-26T20:11:41.829Z,1.30
2023-01-26T20:14:12.652Z,1.13
2023-01-26T20:16:41.502Z,1.01
2023-01-26T20:19:14.022Z,0.95
2023-01-26T20:21:43.020Z,1.09
2023-01-26T20:24:15.080Z,1.01
2023-01-26T20:26:44.729Z,1.15
2023-01-26T20:29:16.228Z,1.10
2023-01-26T20:31:45.953Z,1.18
2023-01-26T20:34:16.975Z,1.11
2023-01-26T20:36:45.587Z,1.00
2023-01-26T20:39:23.944Z,1.06
2023-01-26T20:41:52.683Z,1.09
2023-01-26T20:44:21.385Z,0.99
2023-01-26T20:46:50.635Z,1.04
2023-01-26T20:49:21.483Z,1.18
2023-01-26T20:51:50.463Z,1.11
2023-01-26T20:54:19.565Z,0.93
2023-01-26T20:56:49.917Z,1.01
2023-01-26T20:59:19.468Z,1.08
2023-01-26T21:01:48.144Z,1.16
2023-01-26T21:04:16.781Z,1.04
2023-01-26T21:06:46.835Z,0.91
2023-01-26T21:09:15.482Z,1.01
2023-01-26T21:11:44.517Z,1.20
2023-01-26T21:14:14.336Z,1.23
2023-01-26T21:16:44.174Z,1.26
2023-01-26T21:19:12.917Z,1.29
2023-01-26T21:21:41.611Z,1.27
2023-01-26T21:24:12.190Z,0.99
2023-01-26T21:26:41.104Z,1.10
2023-01-26T21:29:14.445Z,1.02
2023-01-26T21:31:45.391Z,1.00
2023-01-26T21:34:14.172Z,1.09
2023-01-26T21:36:42.854Z,0.92
2023-01-26T21:39:16.279Z,0.79
2023-01-26T21:41:56.927Z,0.68
2023-01-26T21:44:27.967Z,0.74
2023-01-26T21:46:59.396Z,0.86
2023-01-26T21:49:32.916Z,1.07
2023-01-26T21:52:19.404Z,1.07
2023-01-26T21:54:49.396Z,0.96
2023-01-26T21:57:35.621Z,0.90
2023-01-26T22:00:05.258Z,0.95
2023-01-26T22:02:34.951Z,0.77
2023-01-26T22:05:03.536Z,0.62
2023-01-26T22:07:32.320Z,0.52
2023-01-26T22:10:02.415Z,0.63
2023-01-26T22:12:31.028Z,0.52
2023-01-26T22:14:59.714Z,0.48
2023-01-26T22:17:28.317Z,0.47
2023-01-26T22:19:56.879Z,0.54
2023-01-26T22:22:26.035Z,0.60
2023-01-26T22:24:54.762Z,0.76
2023-01-26T22:27:25.019Z,0.67
2023-01-26T22:29:53.755Z,0.65
2023-01-26T22:32:22.249Z,0.77
2023-01-26T22:34:50.864Z,0.77
2023-01-26T22:37:19.630Z,0.98
2023-01-26T22:39:49.078Z,0.85
2023-01-26T22:42:19.107Z,0.96
2023-01-26T22:44:49.104Z,1.14
2023-01-26T22:47:19.905Z,1.03
2023-01-26T22:49:48.453Z,0.98
2023-01-26T22:52:17.161Z,0.99
2023-01-26T22:54:45.701Z,1.04
2023-01-26T22:57:14.305Z,1.01
2023-01-26T22:59:43.099Z,1.09
2023-01-26T23:02:13.871Z,1.05
2023-01-26T23:04:42.472Z,1.06
2023-01-26T23:07:11.571Z,1.13
2023-01-26T23:09:40.149Z,1.04
2023-01-26T23:12:09.093Z,0.95
2023-01-26T23:14:37.893Z,0.80
2023-01-26T23:17:08.125Z,0.91
2023-01-26T23:19:38.273Z,0.94
2023-01-26T23:22:06.933Z,0.92
2023-01-26T23:24:35.635Z,1.03
2023-01-26T23:27:04.327Z,0.86
2023-01-26T23:29:32.805Z,0.92
2023-01-26T23:32:01.458Z,0.88
2023-01-26T23:34:30.275Z,0.92
2023-01-26T23:37:00.424Z,0.94
2023-01-26T23:39:29.005Z,0.82
2023-01-26T23:41:57.783Z,0.84
2023-01-26T23:44:26.357Z,0.73
2023-01-26T23:46:55.004Z,0.72
2023-01-26T23:49:23.699Z,0.74
2023-01-26T23:51:52.554Z,0.83
2023-01-26T23:54:22.456Z,0.96
2023-01-26T23:56:50.983Z,0.86
2023-01-26T23:59:19.509Z,1.07
